»·PEaware :: ASA877 KLAS-KLAX

ASA877 :: KLAS-KLAX

FLIGHT INFORMATION

Flight Status: Arrived
Operator:
Alaska Airlines
More flights by this operator :: More flights under this callsign
Pilot: Anthony T. (15846)
Aircraft: MCDONNELL-DOUGLAS MD-82
(MD82)
More flights by this aircraft type
Origin: KLAS McCarran Intl
United States
Destination: KLAX Los Angeles Intl
United States
More flights between these airports :: More routes between these airports
Route: +BOACH8 HEC RIIVR3
File this flight plan on PilotEdge
Remarks:
Altitude:
(Current/Filed)
21,000ft
Speed:
(Current/Filed)
320kts
Departed: 08-Jan-18 09:15 PM
Arrived: 08-Jan-18 09:54 PM
Distance/Time
Traveled:
185nm/0:39
Distance/Time
To Go:
Arrived

Flight Plot

Page will automatically refresh every two minutes.

Flight plan parsing failed; only flown route is shown


Map Options




Map Legend


Flown Route
Filed Route
Departure Airport
Arrival Airport
Navaid (VOR, NDB)
Fix

Horizontal Profiles

Position Reports

Time Latitude Longitude Heading Altitude Ground
Speed
08-Jan-18 21:05 36.079636 -115.125642 89 2037ft 0kts
08-Jan-18 21:06 36.079636 -115.125642 89 2037ft 0kts
08-Jan-18 21:07 36.079636 -115.125642 89 2037ft 0kts
08-Jan-18 21:08 36.079636 -115.125642 89 2037ft 0kts
08-Jan-18 21:09 36.079636 -115.125642 89 2037ft 0kts
08-Jan-18 21:10 36.079636 -115.125642 89 2037ft 0kts
08-Jan-18 21:11 36.079636 -115.125642 89 2037ft 0kts
08-Jan-18 21:12 36.079636 -115.125642 89 2037ft 0kts
08-Jan-18 21:13 36.079636 -115.125642 89 2037ft 0kts
08-Jan-18 21:14 36.079630 -115.125622 102 2037ft 1kts
08-Jan-18 21:15 36.079422 -115.126079 188 2038ft 0kts
08-Jan-18 21:16 36.079422 -115.126079 188 2038ft 0kts
08-Jan-18 21:17 36.077652 -115.126218 159 2042ft 7kts
08-Jan-18 21:18 36.077495 -115.122173 80 2036ft 9kts
08-Jan-18 21:19 36.077472 -115.121697 109 2036ft 0kts
08-Jan-18 21:20 36.076411 -115.123063 271 2038ft 30kts
08-Jan-18 21:21 36.075420 -115.183281 268 2777ft 295kts
08-Jan-18 21:22 36.040203 -115.261736 210 5718ft 268kts
08-Jan-18 21:23 35.970807 -115.299412 188 8715ft 283kts
08-Jan-18 21:24 35.891578 -115.310873 186 11735ft 296kts
08-Jan-18 21:25 35.800896 -115.308418 175 14836ft 357kts
08-Jan-18 21:26 35.700159 -115.301339 195 17806ft 374kts
08-Jan-18 21:27 35.617343 -115.378162 226 20554ft 395kts
08-Jan-18 21:28 35.539485 -115.481359 227 22000ft 438kts
08-Jan-18 21:29 35.457038 -115.591732 227 21999ft 438kts
08-Jan-18 21:30 35.373985 -115.702600 227 22198ft 452kts
08-Jan-18 21:31 35.289497 -115.815009 227 22130ft 452kts
08-Jan-18 21:32 35.220070 -115.907099 227 22001ft 450kts
08-Jan-18 21:33 35.120973 -116.038114 227 22000ft 450kts
08-Jan-18 21:34 35.050119 -116.131486 227 22000ft 450kts
08-Jan-18 21:35 34.965001 -116.243312 227 22000ft 450kts
08-Jan-18 21:36 34.865886 -116.373060 227 22000ft 450kts
08-Jan-18 21:37 34.793493 -116.464312 218 22020ft 450kts
08-Jan-18 21:38 34.679189 -116.574192 218 21798ft 449kts
08-Jan-18 21:39 34.597092 -116.651480 217 21520ft 447kts
08-Jan-18 21:40 34.499577 -116.743030 217 21128ft 445kts
08-Jan-18 21:41 34.402472 -116.833917 217 20699ft 442kts
08-Jan-18 21:42 34.305856 -116.924076 217 20186ft 439kts
08-Jan-18 21:43 34.209783 -117.013462 217 19482ft 434kts
08-Jan-18 21:44 34.119141 -117.099487 229 18945ft 384kts
08-Jan-18 21:45 34.066092 -117.203395 241 19002ft 366kts
08-Jan-18 21:46 34.041411 -117.321607 262 18384ft 367kts
08-Jan-18 21:47 34.029926 -117.440334 263 16923ft 350kts
08-Jan-18 21:48 34.019179 -117.553943 263 14951ft 337kts
08-Jan-18 21:49 34.008828 -117.662225 263 12978ft 327kts
08-Jan-18 21:50 33.998805 -117.765772 263 11892ft 299kts
08-Jan-18 21:51 33.989960 -117.856661 263 10259ft 277kts
08-Jan-18 21:52 33.981503 -117.943079 263 8585ft 248kts
08-Jan-18 21:53 33.973897 -118.020032 263 6992ft 222kts
08-Jan-18 21:54 33.967151 -118.087625 262 5348ft 199kts
08-Jan-18 21:55 33.960678 -118.148490 262 4061ft 174kts
08-Jan-18 21:56 33.955603 -118.207505 264 3142ft 184kts
08-Jan-18 21:57 33.949136 -118.268415 263 1930ft 187kts
08-Jan-18 21:58 33.942855 -118.329415 263 1114ft 169kts
08-Jan-18 21:59 33.937325 -118.383067 263 172ft 152kts
08-Jan-18 22:00 33.935608 -118.405341 288 123ft 0kts
08-Jan-18 22:01 33.935702 -118.405664 290 123ft 8kts
08-Jan-18 22:02 33.936902 -118.408994 351 125ft 16kts
08-Jan-18 22:03 33.937624 -118.409100 353 125ft 0kts
08-Jan-18 22:04 33.937960 -118.409146 354 125ft 5kts
08-Jan-18 22:05 33.940599 -118.407635 60 123ft 2kts
08-Jan-18 22:06 33.940620 -118.407583 64 122ft 0kts
08-Jan-18 22:07 33.940620 -118.407583 64 122ft 0kts
08-Jan-18 22:08 33.939063 -118.365715 262 448ft 161kts
08-Jan-18 22:09 33.936668 -118.389859 263 112ft 146kts
08-Jan-18 22:10 33.984629 -117.911275 263 9235ft 256kts

Navigation Log

Ident Type
Flight plan parsing failed, navigation log unavailable